Time;durP1;ratioP1;P1;durP2;ratioP2;P2;SDS_P1;SDS_P2;PMS_P1;PMS_P2;Temp;Humidity;BMP_temperature;BMP_pressure;BME280_temperature;BME280_humidity;BME280_pressure;Samples;Min_cycle;Max_cycle;Signal;HPM_P1;HPM_P2
2022/10/03 00:02:56;;;;;;;13.20;6.87;;;;;;;9.43;100.00;98472.33;2281642;78;20962;-86
2022/10/03 00:05:56;;;;;;;11.60;6.70;;;;;;;9.43;100.00;98468.42;2282091;77;20895;-85
2022/10/03 00:08:56;;;;;;;8.63;6.50;;;;;;;9.42;100.00;98464.07;2281715;78;20887;-86
2022/10/03 00:11:57;;;;;;;10.63;6.97;;;;;;;9.42;100.00;98465.38;2281499;78;21369;-84
2022/10/03 00:14:57;;;;;;;10.57;6.90;;;;;;;9.41;100.00;98463.63;2281884;77;20905;-85
2022/10/03 00:17:58;;;;;;;12.83;6.97;;;;;;;9.45;100.00;98464.10;2281739;78;20926;-86
2022/10/03 00:21:00;;;;;;;14.40;6.60;;;;;;;9.48;100.00;98465.44;2281924;78;20926;-84
2022/10/03 00:23:58;;;;;;;12.10;6.60;;;;;;;9.52;100.00;98463.30;2281649;77;20879;-84
2022/10/03 00:26:59;;;;;;;12.90;6.57;;;;;;;9.55;100.00;98459.46;2281805;77;20906;-84
2022/10/03 00:29:59;;;;;;;9.07;7.00;;;;;;;9.57;100.00;98456.44;2281485;78;20898;-85
2022/10/03 00:33:01;;;;;;;12.23;7.47;;;;;;;9.60;100.00;98460.81;2279217;77;21310;-84
2022/10/03 00:36:00;;;;;;;11.20;6.80;;;;;;;9.62;100.00;98459.52;2249335;78;21000;-84
2022/10/03 00:39:01;;;;;;;11.03;6.43;;;;;;;9.60;100.00;98450.81;2249363;78;20939;-85
2022/10/03 00:42:01;;;;;;;11.33;6.57;;;;;;;9.59;100.00;98452.55;2249242;78;21012;-86
2022/10/03 00:45:01;;;;;;;12.17;6.20;;;;;;;9.60;100.00;98441.70;2249277;78;20899;-84
2022/10/03 00:48:02;;;;;;;12.10;6.00;;;;;;;9.59;100.00;98438.22;2249210;78;20940;-84
2022/10/03 00:51:02;;;;;;;11.17;5.90;;;;;;;9.62;100.00;98446.06;2249224;78;21333;-84
2022/10/03 00:54:02;;;;;;;10.90;4.90;;;;;;;9.63;100.00;98452.14;2249083;78;20880;-84
2022/10/03 00:57:03;;;;;;;6.43;5.20;;;;;;;9.64;100.00;98453.89;2249294;79;20904;-85
2022/10/03 01:00:06;;;;;;;13.77;5.33;;;;;;;9.64;100.00;98449.98;2249135;79;21296;-84
2022/10/03 01:03:04;;;;;;;13.30;4.80;;;;;;;9.64;100.00;98443.47;2248739;78;20987;-83
2022/10/03 01:06:04;;;;;;;6.80;4.50;;;;;;;9.61;100.00;98443.44;2249003;79;20886;-84
2022/10/03 01:09:05;;;;;;;11.63;4.50;;;;;;;9.61;100.00;98443.44;2249213;79;20912;-85
2022/10/03 01:12:05;;;;;;;9.90;4.40;;;;;;;9.60;100.00;98443.00;2249078;78;21359;-85
2022/10/03 01:15:05;;;;;;;9.20;4.47;;;;;;;9.58;100.00;98434.73;2249017;78;20941;-85
2022/10/03 01:18:08;;;;;;;9.57;4.50;;;;;;;9.57;100.00;98439.50;2249157;78;20892;-86
2022/10/03 01:21:06;;;;;;;8.63;4.40;;;;;;;9.58;100.00;98444.28;2249656;78;20928;-85
2022/10/03 01:24:07;;;;;;;8.93;4.27;;;;;;;9.58;100.00;98439.95;2249139;79;20923;-84
2022/10/03 01:27:07;;;;;;;10.73;4.40;;;;;;;9.58;100.00;98441.25;2249243;78;20896;-83
2022/10/03 01:30:22;;;;;;;8.10;4.23;;;;;;;9.57;100.00;98438.63;2249334;78;20971;-84
2022/10/03 01:33:23;;;;;;;11.10;5.33;;;;;;;9.56;100.00;98441.66;2253580;78;20944;-85
2022/10/03 01:36:23;;;;;;;7.13;4.43;;;;;;;9.55;100.00;98436.01;2291585;78;20868;-84
2022/10/03 01:39:24;;;;;;;9.53;4.73;;;;;;;9.55;100.00;98440.34;2291405;78;21304;-84
2022/10/03 01:42:24;;;;;;;11.63;4.87;;;;;;;9.54;100.00;98445.98;2291570;78;20896;-84
2022/10/03 01:45:25;;;;;;;10.27;4.40;;;;;;;9.53;100.00;98441.60;2291492;78;20908;-83
2022/10/03 01:48:25;;;;;;;8.27;4.50;;;;;;;9.54;100.00;98448.59;2291550;78;20873;-84
2022/10/03 01:51:25;;;;;;;12.70;4.43;;;;;;;9.54;100.00;98438.17;2291339;78;20990;-84
2022/10/03 01:54:28;;;;;;;6.13;4.27;;;;;;;9.53;100.00;98439.42;2291531;78;21439;-84
2022/10/03 01:57:26;;;;;;;9.57;4.10;;;;;;;9.51;100.00;98446.36;2291624;78;20909;-84
2022/10/03 02:00:26;;;;;;;7.90;4.63;;;;;;;9.49;100.00;98443.73;2291720;78;21051;-84
2022/10/03 02:03:28;;;;;;;8.43;4.57;;;;;;;9.50;100.00;98444.61;2291562;78;20963;-84
2022/10/03 02:06:30;;;;;;;11.37;4.10;;;;;;;9.49;100.00;98465.88;2291799;78;20908;-87
2022/10/03 02:09:29;;;;;;;11.17;4.60;;;;;;;9.47;100.00;98454.57;2291623;78;21265;-85
2022/10/03 02:12:29;;;;;;;16.83;4.37;;;;;;;9.45;100.00;98448.47;2291588;78;20927;-85
2022/10/03 02:15:29;;;;;;;8.87;4.87;;;;;;;9.43;100.00;98447.58;2292067;78;20893;-85
2022/10/03 02:18:30;;;;;;;10.73;4.20;;;;;;;9.40;100.00;98444.07;2291479;78;20892;-83
2022/10/03 02:21:34;;;;;;;9.80;4.00;;;;;;;9.39;100.00;98441.02;2291733;78;20935;-83
2022/10/03 02:24:31;;;;;;;9.03;4.40;;;;;;;9.37;100.00;98444.05;2291530;78;20864;-85
2022/10/03 02:27:33;;;;;;;8.73;4.33;;;;;;;9.35;100.00;98438.82;2291434;78;20928;-84
2022/10/03 02:30:31;;;;;;;10.60;4.30;;;;;;;9.33;100.00;98434.02;2291451;78;20888;-85
2022/10/03 02:33:32;;;;;;;11.33;3.97;;;;;;;9.31;100.00;98432.26;2290787;78;20960;-86
2022/10/03 02:36:32;;;;;;;9.77;3.30;;;;;;;9.26;100.00;98434.39;2281685;77;21027;-86
2022/10/03 02:39:33;;;;;;;8.90;3.60;;;;;;;9.26;100.00;98438.72;2282033;78;21101;-87
2022/10/03 02:42:33;;;;;;;9.50;3.37;;;;;;;9.25;100.00;98443.48;2281689;77;20927;-86
2022/10/03 02:45:34;;;;;;;11.83;3.20;;;;;;;9.26;100.00;98440.02;2281904;78;20871;-84
2022/10/03 02:48:34;;;;;;;5.90;3.10;;;;;;;9.25;100.00;98435.67;2281590;78;20945;-85
2022/10/03 02:51:34;;;;;;;9.97;3.50;;;;;;;9.24;100.00;98431.33;2281649;78;20902;-84
2022/10/03 02:54:37;;;;;;;7.83;4.00;;;;;;;9.22;100.00;98433.91;2281672;78;20902;-87
2022/10/03 02:57:38;;;;;;;8.73;3.57;;;;;;;9.21;100.00;98426.95;2281602;78;21295;-83
2022/10/03 03:00:38;;;;;;;5.77;3.47;;;;;;;9.21;100.00;98425.66;2281588;77;20929;-85
2022/10/03 03:03:38;;;;;;;7.10;3.93;;;;;;;9.21;100.00;98426.08;2281249;77;20946;-85
2022/10/03 03:06:39;;;;;;;9.20;4.30;;;;;;;9.23;100.00;98426.97;2281684;78;20921;-86
2022/10/03 03:09:39;;;;;;;9.83;4.23;;;;;;;9.22;100.00;98425.22;2281628;78;20898;-85
2022/10/03 03:12:40;;;;;;;11.90;4.97;;;;;;;9.23;100.00;98421.77;2281389;78;20973;-86
2022/10/03 03:15:43;;;;;;;13.70;4.60;;;;;;;9.23;100.00;98423.94;2281440;78;20934;-85
2022/10/03 03:18:42;;;;;;;8.10;4.60;;;;;;;9.25;100.00;98418.31;2281205;78;20910;-86
2022/10/03 03:21:43;;;;;;;13.00;4.70;;;;;;;9.26;100.00;98420.06;2280954;77;20890;-84
2022/10/03 03:24:43;;;;;;;16.97;4.77;;;;;;;9.29;100.00;98418.34;2281343;78;20903;-83
2022/10/03 03:27:44;;;;;;;9.90;4.67;;;;;;;9.32;100.00;98415.34;2281461;78;20910;-84
2022/10/03 03:30:44;;;;;;;15.60;5.17;;;;;;;9.32;100.00;98414.05;2282375;77;20942;-83
2022/10/03 03:33:44;;;;;;;13.50;4.57;;;;;;;9.35;100.00;98415.37;2279610;77;20969;-85
2022/10/03 03:36:45;;;;;;;12.63;4.53;;;;;;;9.35;100.00;98414.50;2248893;78;20888;-86
2022/10/03 03:39:45;;;;;;;14.20;4.37;;;;;;;9.34;100.00;98412.33;2248814;79;21293;-85
2022/10/03 03:42:46;;;;;;;15.77;4.57;;;;;;;9.34;100.00;98411.02;2248418;78;20908;-83
2022/10/03 03:45:47;;;;;;;17.87;5.40;;;;;;;9.37;100.00;98413.66;2248332;78;20939;-81
2022/10/03 03:48:47;;;;;;;12.10;4.43;;;;;;;9.39;100.00;98411.94;2248830;78;20947;-82
2022/10/03 03:51:47;;;;;;;17.97;6.07;;;;;;;9.41;100.00;98415.86;2249465;78;20940;-83
2022/10/03 03:54:47;;;;;;;11.50;4.73;;;;;;;9.40;100.00;98410.21;2249419;78;21293;-81
2022/10/03 03:57:48;;;;;;;18.33;4.73;;;;;;;9.42;100.00;98410.67;2248236;78;20908;-80
2022/10/03 04:00:48;;;;;;;14.10;5.00;;;;;;;9.43;100.00;98408.50;2247964;78;20900;-81
2022/10/03 04:03:50;;;;;;;12.27;4.77;;;;;;;9.40;100.00;98409.78;2247841;79;20972;-83
2022/10/03 04:06:49;;;;;;;13.87;5.30;;;;;;;9.42;100.00;98402.85;2247487;78;20908;-81
2022/10/03 04:09:49;;;;;;;13.67;5.60;;;;;;;9.42;100.00;98404.58;2247681;79;21052;-83
2022/10/03 04:12:50;;;;;;;14.00;5.50;;;;;;;9.43;100.00;98398.09;2247973;79;21024;-81
2022/10/03 04:15:50;;;;;;;15.17;4.80;;;;;;;9.44;100.00;98406.34;2248014;78;20924;-78
2022/10/03 04:18:57;;;;;;;14.87;4.90;;;;;;;9.46;100.00;98403.75;2248291;79;20908;-81
2022/10/03 04:21:57;;;;;;;11.73;5.17;;;;;;;9.45;100.00;98406.79;2247935;79;20940;-78
2022/10/03 04:24:57;;;;;;;18.67;4.73;;;;;;;9.45;100.00;98401.58;2247612;79;21370;-79
2022/10/03 04:27:58;;;;;;;16.27;4.67;;;;;;;9.46;100.00;98407.23;2248407;78;20912;-81
2022/10/03 04:30:58;;;;;;;18.37;5.67;;;;;;;9.45;100.00;98408.09;2248273;78;20995;-82
2022/10/03 04:33:59;;;;;;;14.87;4.43;;;;;;;9.46;100.00;98399.41;2248039;77;20995;-81
2022/10/03 04:36:59;;;;;;;11.10;4.07;;;;;;;9.47;100.00;98398.55;2248056;78;20885;-81
2022/10/03 04:40:00;;;;;;;13.97;4.70;;;;;;;9.48;100.00;98405.94;2248872;78;20940;-79
2022/10/03 04:43:00;;;;;;;11.50;4.00;;;;;;;9.49;100.00;98405.95;2248369;78;20912;-82
2022/10/03 04:46:01;;;;;;;11.27;3.80;;;;;;;9.49;100.00;98388.15;2247697;78;21340;-82
2022/10/03 04:49:01;;;;;;;13.77;3.80;;;;;;;9.50;100.00;98409.00;2246933;78;20912;-84
2022/10/03 04:52:01;;;;;;;12.77;4.07;;;;;;;9.49;100.00;98400.75;2247227;78;20919;-79
2022/10/03 04:55:04;;;;;;;7.17;4.27;;;;;;;9.48;100.00;98405.94;2247657;79;20912;-82
2022/10/03 04:58:02;;;;;;;13.93;4.10;;;;;;;9.48;100.00;98411.16;2246702;78;20915;-81
2022/10/03 05:01:04;;;;;;;13.83;3.93;;;;;;;9.49;100.00;98405.95;2246285;78;20940;-80
2022/10/03 05:04:03;;;;;;;16.43;4.43;;;;;;;9.49;100.00;98398.14;2245977;79;20928;-82
2022/10/03 05:07:03;;;;;;;9.60;3.40;;;;;;;9.49;100.00;98395.53;2246539;79;20900;-80
2022/10/03 05:10:03;;;;;;;10.70;3.77;;;;;;;9.49;100.00;98390.33;2246131;79;20920;-79
2022/10/03 05:13:04;;;;;;;13.63;3.97;;;;;;;9.49;100.00;98387.72;2246939;78;21313;-81
2022/10/03 05:16:05;;;;;;;13.93;4.43;;;;;;;9.48;100.00;98394.22;2247466;78;20935;-81
2022/10/03 05:19:05;;;;;;;10.13;3.80;;;;;;;9.44;100.00;98386.81;2246765;78;20908;-81
2022/10/03 05:22:05;;;;;;;9.17;3.73;;;;;;;9.39;100.00;98418.45;2247128;78;20960;-81
2022/10/03 05:25:05;;;;;;;10.57;4.40;;;;;;;9.34;100.00;98387.58;2246603;78;20939;-85
2022/10/03 05:28:06;;;;;;;11.53;3.37;;;;;;;9.31;100.00;98399.27;2248344;78;21052;-85
2022/10/03 05:31:06;;;;;;;11.67;4.30;;;;;;;9.27;100.00;98402.70;2247742;78;21653;-85
2022/10/03 05:34:09;;;;;;;13.07;4.20;;;;;;;9.26;100.00;98403.14;2247969;78;21006;-84
2022/10/03 05:37:10;;;;;;;9.10;3.80;;;;;;;9.24;100.00;98411.36;2248272;78;20952;-85
2022/10/03 05:40:10;;;;;;;12.73;4.10;;;;;;;9.22;100.00;98401.79;2248478;79;20960;-84
2022/10/03 05:43:11;;;;;;;14.63;4.47;;;;;;;9.26;100.00;98406.17;2249013;78;20924;-84
2022/10/03 05:46:13;;;;;;;8.90;3.67;;;;;;;9.23;100.00;98416.55;2248542;78;21297;-87
2022/10/03 05:49:11;;;;;;;12.47;4.47;;;;;;;9.23;100.00;98410.92;2249699;79;20884;-85
2022/10/03 05:52:12;;;;;;;10.77;3.90;;;;;;;9.26;100.00;98415.28;2248079;78;20912;-85
2022/10/03 05:55:12;;;;;;;16.23;3.67;;;;;;;9.31;100.00;98427.92;2248058;78;21570;-85
2022/10/03 05:58:15;;;;;;;7.97;3.13;;;;;;;9.32;100.00;98420.55;2248363;79;20872;-85
2022/10/03 06:01:15;;;;;;;9.70;3.83;;;;;;;9.34;100.00;98415.36;2226137;79;21279;-84
2022/10/03 06:04:15;;;;;;;20.70;5.00;;;;;;;9.34;100.00;98417.53;2248047;78;20971;-86
2022/10/03 06:07:16;;;;;;;11.77;4.43;;;;;;;9.39;100.00;98411.07;2247859;78;20897;-84
2022/10/03 06:10:16;;;;;;;16.13;4.50;;;;;;;9.41;100.00;98414.56;2248058;78;20876;-84
2022/10/03 06:13:18;;;;;;;10.40;4.80;;;;;;;9.45;100.00;98415.03;2247900;78;20955;-84
2022/10/03 06:16:18;;;;;;;17.37;5.40;;;;;;;9.51;100.00;98415.97;2247503;78;20947;-84
2022/10/03 06:19:17;;;;;;;14.33;4.20;;;;;;;9.57;100.00;98409.97;2247923;79;20897;-84
2022/10/03 06:22:18;;;;;;;17.83;5.07;;;;;;;9.63;100.00;98415.23;2248298;79;20947;-84
2022/10/03 06:25:20;;;;;;;16.63;3.87;;;;;;;9.80;100.00;98414.07;2248116;78;21302;-83
2022/10/03 06:28:19;;;;;;;20.53;4.13;;;;;;;9.95;100.00;98412.88;2248305;78;20901;-82
2022/10/03 06:31:19;;;;;;;11.00;3.70;;;;;;;10.01;100.00;98409.02;2247873;78;20975;-83
2022/10/03 06:34:19;;;;;;;11.47;3.60;;;;;;;10.02;100.00;98414.67;2247226;78;21007;-83
2022/10/03 06:37:20;;;;;;;12.40;4.30;;;;;;;10.03;100.00;98419.02;2248605;77;20939;-84
2022/10/03 06:40:20;;;;;;;9.63;3.33;;;;;;;9.93;100.00;98413.30;2248574;79;20920;-82
2022/10/03 06:43:21;;;;;;;15.27;3.50;;;;;;;9.94;100.00;98425.47;2247523;78;21327;-85
2022/10/03 06:46:21;;;;;;;13.73;3.40;;;;;;;9.99;100.00;98408.13;2247633;78;20951;-82
2022/10/03 06:49:21;;;;;;;9.73;3.10;;;;;;;10.06;100.00;98422.95;2247814;78;20940;-80
2022/10/03 06:52:23;;;;;;;13.73;3.57;;;;;;;10.19;100.00;98422.17;2248304;78;21111;-84
2022/10/03 06:55:22;;;;;;;9.37;2.50;;;;;;;10.25;100.00;98423.98;2248138;78;20916;-84
2022/10/03 06:58:23;;;;;;;6.47;2.33;;;;;;;10.20;100.00;98430.48;2247362;79;20935;-81
2022/10/03 07:01:23;;;;;;;7.47;2.40;;;;;;;10.19;100.00;98434.34;2247581;78;20896;-84
2022/10/03 07:04:24;;;;;;;12.23;2.90;;;;;;;10.18;100.00;98439.99;2247643;79;21635;-83
2022/10/03 07:07:24;;;;;;;10.77;3.20;;;;;;;10.18;100.00;98449.13;2247234;78;20943;-83
2022/10/03 07:10:24;;;;;;;6.90;2.40;;;;;;;10.16;100.00;98443.02;2247878;78;20868;-82
2022/10/03 07:13:26;;;;;;;5.60;2.47;;;;;;;10.14;100.00;98434.31;2246555;78;20979;-83
2022/10/03 07:16:25;;;;;;;4.00;2.23;;;;;;;10.12;100.00;98453.42;2247335;78;20951;-85
2022/10/03 07:19:26;;;;;;;6.23;2.80;;;;;;;10.09;100.00;98441.23;2247464;78;20951;-82
2022/10/03 07:22:26;;;;;;;6.53;2.60;;;;;;;10.04;100.00;98444.23;2247074;79;21316;-85
2022/10/03 07:25:26;;;;;;;7.27;2.60;;;;;;;10.01;100.00;98455.95;2248037;78;20892;-82
2022/10/03 07:28:27;;;;;;;6.90;2.67;;;;;;;9.98;100.00;98448.11;2249027;79;20908;-83
2022/10/03 07:31:27;;;;;;;9.20;2.83;;;;;;;10.04;100.00;98448.15;2249263;78;20939;-84
2022/10/03 07:34:28;;;;;;;9.13;3.20;;;;;;;10.01;100.00;98441.61;2249108;79;20960;-85
2022/10/03 07:40:47;;;;;;;9.27;3.07;;;;;;;10.00;100.00;98454.20;2280209;78;20978;-84
2022/10/03 07:43:47;;;;;;;10.47;3.80;;;;;;;10.00;100.00;98450.30;2280393;78;21333;-85
2022/10/03 07:46:49;;;;;;;10.97;3.70;;;;;;;10.04;100.00;98437.72;2280133;78;21329;-84
2022/10/03 07:49:50;;;;;;;11.50;3.70;;;;;;;10.06;100.00;98441.21;2280616;78;20941;-84
2022/10/03 07:52:53;;;;;;;16.43;3.60;;;;;;;10.06;100.00;98440.34;2259826;78;20907;-83
2022/10/03 07:55:51;;;;;;;17.67;4.10;;;;;;;10.09;100.00;98447.75;2280986;78;20891;-82
2022/10/03 07:58:52;;;;;;;14.10;3.20;;;;;;;10.17;100.00;98455.20;2280651;77;20907;-83
2022/10/03 08:01:53;;;;;;;14.80;4.50;;;;;;;10.22;100.00;98450.05;2280720;78;20914;-84
2022/10/03 08:04:52;;;;;;;10.70;3.53;;;;;;;10.27;100.00;98447.47;2280906;77;20907;-83
2022/10/03 08:07:52;;;;;;;10.90;3.40;;;;;;;10.29;100.00;98446.63;2280439;78;20887;-84
2022/10/03 08:10:53;;;;;;;13.23;3.93;;;;;;;10.33;99.94;98444.91;2279931;78;20937;-83
2022/10/03 08:13:53;;;;;;;12.87;3.87;;;;;;;10.29;99.10;98451.84;2280133;77;20883;-81
2022/10/03 08:16:54;;;;;;;10.43;3.77;;;;;;;10.25;99.65;98446.16;2280238;78;21307;-84
2022/10/03 08:19:56;;;;;;;9.27;3.47;;;;;;;10.27;99.38;98442.26;2259446;78;20906;-82
2022/10/03 08:22:58;;;;;;;9.73;4.10;;;;;;;10.27;99.40;98440.52;2258179;78;20910;-84
2022/10/03 08:25:59;;;;;;;10.93;3.30;;;;;;;10.29;99.32;98442.70;2279404;78;21304;-83
2022/10/03 08:28:59;;;;;;;9.00;3.17;;;;;;;10.29;99.00;98444.44;2279189;78;20946;-83
2022/10/03 08:32:00;;;;;;;7.53;3.00;;;;;;;10.27;98.50;98451.39;2279756;78;20960;-82
2022/10/03 08:35:00;;;;;;;8.80;3.40;;;;;;;10.31;98.38;98428.37;2280435;77;20941;-82
2022/10/03 08:38:00;;;;;;;10.00;3.43;;;;;;;10.36;98.31;98430.14;2290482;78;20897;-84
2022/10/03 08:41:01;;;;;;;11.13;3.63;;;;;;;10.42;97.50;98438.47;2291011;78;21312;-85
2022/10/03 08:44:01;;;;;;;10.37;3.63;;;;;;;10.42;97.55;98430.64;2290638;78;20955;-84
2022/10/03 08:47:02;;;;;;;8.27;3.53;;;;;;;10.40;98.42;98446.69;2289541;78;21019;-83
2022/10/03 08:50:02;;;;;;;12.43;4.00;;;;;;;10.40;98.14;98436.25;2290750;78;20892;-84
2022/10/03 08:53:02;;;;;;;13.10;3.57;;;;;;;10.33;99.21;98438.38;2289499;78;20978;-85
2022/10/03 08:56:06;;;;;;;13.37;4.07;;;;;;;10.18;99.52;98433.47;2290539;78;20904;-82
2022/10/03 08:59:03;;;;;;;8.80;3.40;;;;;;;10.08;100.00;98432.97;2290920;78;20955;-84
2022/10/03 09:02:04;;;;;;;13.23;4.07;;;;;;;10.07;100.00;98436.44;2291338;78;20912;-84
2022/10/03 09:05:04;;;;;;;11.63;5.10;;;;;;;10.02;100.00;98438.14;2291447;78;20947;-84
2022/10/03 09:08:05;;;;;;;8.43;3.60;;;;;;;10.00;100.00;98433.34;2291118;78;20900;-85
2022/10/03 09:11:08;;;;;;;11.43;3.80;;;;;;;10.10;100.00;98450.80;2291383;78;20943;-84
2022/10/03 09:14:09;;;;;;;9.57;3.77;;;;;;;10.23;100.00;98466.58;2290721;78;20955;-84
2022/10/03 09:17:09;;;;;;;8.63;3.27;;;;;;;10.26;100.00;98433.98;2290573;78;21619;-84
2022/10/03 09:20:09;;;;;;;9.10;3.20;;;;;;;10.27;100.00;98437.04;2290086;78;20924;-82
2022/10/03 09:23:09;;;;;;;6.17;2.53;;;;;;;10.30;100.00;98446.19;2289831;78;20996;-85
2022/10/03 09:26:10;;;;;;;7.63;3.53;;;;;;;10.25;100.00;98445.28;2289882;78;21427;-85
2022/10/03 09:29:10;;;;;;;10.73;4.03;;;;;;;10.23;100.00;98440.48;2288848;78;20952;-84
2022/10/03 09:32:11;;;;;;;7.77;3.27;;;;;;;10.19;100.00;98451.30;2289670;78;20940;-80
2022/10/03 09:35:11;;;;;;;14.17;4.20;;;;;;;10.16;100.00;98463.89;2290644;78;20977;-83
2022/10/03 09:38:11;;;;;;;6.97;3.70;;;;;;;10.12;100.00;98452.98;2290772;78;20900;-85
2022/10/03 09:41:12;;;;;;;11.83;3.93;;;;;;;10.09;100.00;98441.66;2290732;78;20928;-85
2022/10/03 09:44:12;;;;;;;8.00;3.43;;;;;;;10.06;100.00;98445.55;2290791;78;21277;-85
2022/10/03 09:47:22;;;;;;;7.17;3.00;;;;;;;10.14;100.00;98450.39;2290004;78;20998;-85
2022/10/03 09:50:22;;;;;;;9.60;4.40;;;;;;;10.19;100.00;98459.13;2290185;78;20927;-85
2022/10/03 09:53:28;;;;;;;8.93;3.30;;;;;;;10.17;100.00;98455.63;2290072;78;20944;-86
2022/10/03 09:56:26;;;;;;;10.37;5.00;;;;;;;10.06;100.00;98463.38;2290022;78;21277;-85
2022/10/03 09:59:26;;;;;;;12.00;4.80;;;;;;;10.07;100.00;98471.64;2290099;77;20944;-85
2022/10/03 10:02:27;;;;;;;10.50;4.20;;;;;;;10.01;100.00;98461.16;2290045;78;21083;-85
2022/10/03 10:05:27;;;;;;;9.03;4.07;;;;;;;10.09;100.00;98467.74;2290171;78;20920;-84
2022/10/03 10:08:28;;;;;;;16.00;5.37;;;;;;;10.14;100.00;98456.48;2290168;78;21300;-85
2022/10/03 10:11:28;;;;;;;8.20;3.57;;;;;;;10.14;100.00;98472.56;2289656;78;21042;-85
2022/10/03 10:14:29;;;;;;;13.30;4.17;;;;;;;10.14;100.00;98470.83;2290329;78;20912;-84
2022/10/03 10:17:29;;;;;;;8.97;4.03;;;;;;;10.17;100.00;98481.28;2289510;78;21022;-85
2022/10/03 10:20:29;;;;;;;9.37;4.10;;;;;;;10.23;100.00;98471.79;2290335;78;20900;-85
2022/10/03 10:23:30;;;;;;;11.00;4.50;;;;;;;10.27;100.00;98473.56;2289270;78;20961;-83
2022/10/03 10:26:30;;;;;;;6.70;4.20;;;;;;;10.28;100.00;98492.27;2289686;78;21139;-85
2022/10/03 10:29:31;;;;;;;11.43;3.63;;;;;;;10.32;100.00;98501.86;2289294;78;20920;-84
2022/10/03 10:32:31;;;;;;;7.80;4.00;;;;;;;10.30;100.00;98515.32;2289639;78;20940;-84
2022/10/03 10:35:31;;;;;;;4.27;3.30;;;;;;;10.34;100.00;98510.56;2289155;78;20892;-81
2022/10/03 10:38:32;;;;;;;8.37;4.10;;;;;;;10.41;100.00;98492.83;2289674;78;20909;-84
2022/10/03 10:41:32;;;;;;;5.10;3.40;;;;;;;10.39;100.00;98504.52;2290870;78;20959;-86
2022/10/03 10:44:33;;;;;;;12.33;4.30;;;;;;;10.42;100.00;98501.09;2289938;78;21320;-82
2022/10/03 10:47:33;;;;;;;5.90;3.93;;;;;;;10.75;100.00;98494.77;2289726;78;20987;-85
2022/10/03 10:50:33;;;;;;;14.57;4.97;;;;;;;10.90;100.00;98502.25;2290464;78;21272;-85
2022/10/03 10:53:36;;;;;;;10.43;3.80;;;;;;;11.05;100.00;98503.62;2289845;78;20991;-85
2022/10/03 10:56:35;;;;;;;7.47;3.97;;;;;;;11.08;100.00;98514.09;2289745;78;20908;-84
2022/10/03 10:59:35;;;;;;;6.67;3.37;;;;;;;11.31;99.50;98503.33;2290873;78;20905;-83
2022/10/03 11:02:36;;;;;;;9.45;4.12;;;;;;;11.50;96.77;98510.80;2290597;78;20904;-83
2022/10/03 11:05:37;;;;;;;6.33;3.42;;;;;;;11.65;96.74;98506.91;2290799;78;20971;-84
2022/10/03 11:08:36;;;;;;;8.13;3.70;;;;;;;11.78;95.52;98503.91;2290689;78;20937;-84
2022/10/03 11:11:38;;;;;;;8.33;3.60;;;;;;;11.98;92.80;98510.04;2290361;78;21371;-85
2022/10/03 11:14:37;;;;;;;5.37;3.37;;;;;;;12.31;93.11;98496.12;2291081;78;20905;-84
2022/10/03 11:17:37;;;;;;;7.75;3.52;;;;;;;12.50;91.20;98496.97;2290597;78;20948;-84
2022/10/03 11:20:39;;;;;;;6.92;4.47;;;;;;;12.70;89.76;98499.55;2267358;78;21280;-83
2022/10/03 11:23:40;;;;;;;7.45;4.05;;;;;;;12.73;88.82;98498.23;2290822;78;20931;-84
2022/10/03 11:26:40;;;;;;;9.23;3.40;;;;;;;12.68;87.72;98494.31;2291243;78;20928;-83
2022/10/03 11:29:41;;;;;;;6.67;3.62;;;;;;;12.58;87.52;98499.14;2291613;78;20951;-85
2022/10/03 11:32:43;;;;;;;9.20;3.85;;;;;;;12.54;88.08;98496.09;2291418;78;20983;-84
2022/10/03 11:35:52;;;;;;;6.55;3.98;;;;;;;12.57;86.50;98510.48;2290322;78;20908;-85
2022/10/03 11:38:52;;;;;;;8.75;3.65;;;;;;;12.66;86.99;98503.92;2267793;78;20932;-82
2022/10/03 11:41:54;;;;;;;7.10;3.37;;;;;;;12.75;85.75;98506.53;2266927;78;20888;-84
2022/10/03 11:44:54;;;;;;;7.67;3.52;;;;;;;12.83;82.78;98531.39;2289820;78;20944;-79
2022/10/03 11:47:55;;;;;;;4.90;3.00;;;;;;;12.92;83.91;98510.84;2289967;78;21432;-84
2022/10/03 11:50:58;;;;;;;7.22;3.20;;;;;;;12.96;84.43;98507.34;2267149;78;20872;-82
2022/10/03 11:53:57;;;;;;;7.40;3.52;;;;;;;12.84;83.92;98521.78;2289472;78;20924;-83
2022/10/03 11:57:03;;;;;;;6.20;3.33;;;;;;;13.13;87.11;98493.78;2263714;78;20912;-85
2022/10/03 12:00:03;;;;;;;7.90;3.60;;;;;;;13.98;82.41;98492.05;2289215;78;20912;-84
2022/10/03 12:03:04;;;;;;;8.58;3.87;;;;;;;14.74;81.22;98492.27;2289086;78;20948;-84
2022/10/03 12:09:28;;;;;;;7.30;4.25;;;;;;;14.59;73.63;98507.30;2264972;78;20904;-83
2022/10/03 12:12:29;;;;;;;8.03;3.87;;;;;;;13.83;76.87;98506.55;2288079;78;20955;-81
2022/10/03 12:15:29;;;;;;;7.67;4.10;;;;;;;13.62;77.67;98502.74;2288125;78;20971;-81
2022/10/03 12:18:32;;;;;;;8.70;4.15;;;;;;;13.57;78.20;98513.70;2288210;78;20920;-81
2022/10/03 12:21:30;;;;;;;13.85;3.98;;;;;;;13.46;78.26;98515.07;2289432;78;20920;-83
2022/10/03 12:24:30;;;;;;;11.45;3.62;;;;;;;13.25;77.59;98517.78;2287586;78;20991;-83
2022/10/03 12:27:33;;;;;;;9.23;4.12;;;;;;;13.34;80.68;98529.11;2288166;78;20932;-85
2022/10/03 12:30:36;;;;;;;7.45;3.80;;;;;;;14.29;78.78;98527.23;2287668;78;20939;-86
2022/10/03 12:33:36;;;;;;;11.33;3.72;;;;;;;14.47;75.54;98536.31;2264475;78;20943;-84
2022/10/03 12:36:37;;;;;;;10.38;3.75;;;;;;;14.29;76.62;98541.67;2287401;78;20901;-84
2022/10/03 12:39:38;;;;;;;4.95;3.70;;;;;;;14.63;75.75;98528.72;2288833;78;21666;-81
2022/10/03 12:42:39;;;;;;;6.72;3.62;;;;;;;14.76;74.28;98529.95;2289118;78;20908;-86
2022/10/03 12:45:39;;;;;;;6.50;3.85;;;;;;;14.67;76.19;98546.64;2290115;78;20869;-82
2022/10/03 12:48:41;;;;;;;8.40;3.55;;;;;;;14.55;74.57;98544.13;2289625;78;20959;-82
2022/10/03 12:51:40;;;;;;;6.55;3.55;;;;;;;15.10;76.21;98531.77;2290437;78;20920;-84
2022/10/03 12:54:40;;;;;;;10.93;3.85;;;;;;;15.21;73.80;98549.17;2289876;78;20935;-82
2022/10/03 12:57:40;;;;;;;7.12;3.60;;;;;;;15.24;75.21;98555.70;2290905;78;20896;-83
2022/10/03 13:00:42;;;;;;;9.65;3.90;;;;;;;14.93;75.37;98551.22;2289985;78;20916;-81
2022/10/03 13:03:43;;;;;;;7.67;4.90;;;;;;;15.01;76.43;98556.41;2289667;78;21288;-82
2022/10/03 13:06:44;;;;;;;5.75;3.85;;;;;;;15.50;75.44;98555.84;2289547;78;20927;-81
2022/10/03 13:09:44;;;;;;;6.53;3.80;;;;;;;15.50;73.95;98553.20;2289492;78;20943;-84
2022/10/03 13:12:45;;;;;;;7.00;3.65;;;;;;;15.48;74.90;98559.80;2266840;78;20936;-82
2022/10/03 13:15:46;;;;;;;10.35;4.50;;;;;;;15.28;74.25;98557.41;2289499;78;20932;-83
2022/10/03 13:18:52;;;;;;;11.00;6.28;;;;;;;15.18;75.54;98566.29;2290508;78;20972;-84
2022/10/03 13:21:52;;;;;;;8.30;4.87;;;;;;;15.48;73.38;98574.27;2289722;78;21305;-82
2022/10/03 13:24:53;;;;;;;5.92;3.95;;;;;;;15.35;72.95;98575.30;2289107;78;20959;-83
2022/10/03 13:27:58;;;;;;;10.03;5.08;;;;;;;15.28;72.48;98569.25;2266431;78;20924;-85
2022/10/03 13:31:02;;;;;;;;;;;;;;;15.38;72.34;98582.29;2293147;78;20928;-83
2022/10/03 13:34:06;;;;;;;6.75;4.15;;;;;;;15.18;74.63;98570.68;2294612;77;20087;-84
2022/10/03 13:37:08;;;;;;;6.33;3.80;;;;;;;15.06;72.18;98562.48;2264002;78;20989;-82
2022/10/03 13:40:04;;;;;;;10.72;3.60;;;;;;;14.79;73.83;98582.47;2279306;78;21305;-86
2022/10/03 13:43:07;;;;;;;5.50;3.65;;;;;;;14.72;74.09;98592.56;2257370;78;21115;-84
2022/10/03 13:46:12;;;;;;;4.35;3.50;;;;;;;14.60;74.46;98593.10;2279825;78;21230;-83
2022/10/03 13:49:17;;;;;;;6.35;3.77;;;;;;;14.40;75.34;98587.55;2259124;78;21001;-84
2022/10/03 13:52:14;;;;;;;4.05;2.95;;;;;;;14.78;77.92;98575.47;2280207;77;20906;-85
2022/10/03 13:55:18;;;;;;;4.85;3.00;;;;;;;14.94;73.66;98584.95;2280587;78;21694;-85
2022/10/03 13:58:14;;;;;;;6.47;3.70;;;;;;;14.44;75.46;98582.29;2280961;78;21229;-83
2022/10/03 14:01:20;;;;;;;5.47;3.70;;;;;;;14.18;76.52;98589.01;2280766;78;20947;-86
2022/10/03 14:04:18;;;;;;;6.42;3.00;;;;;;;14.10;74.24;98593.44;2281188;78;20996;-82
2022/10/03 14:07:18;;;;;;;4.45;3.10;;;;;;;14.08;76.51;98597.83;2281708;78;20922;-83
2022/10/03 14:10:19;;;;;;;5.62;4.58;;;;;;;14.42;74.66;98612.94;2281349;78;20989;-83